sensor_id;sensor_type;location;lat;lon;timestamp;temperature;humidity
8820;DHT22;4446;50.876;4.736;2023-04-15T00:01:52;8.60;99.90
8820;DHT22;4446;50.876;4.736;2023-04-15T00:04:19;8.70;99.90
8820;DHT22;4446;50.876;4.736;2023-04-15T00:06:49;8.70;99.90
8820;DHT22;4446;50.876;4.736;2023-04-15T00:09:17;8.70;99.90
8820;DHT22;4446;50.876;4.736;2023-04-15T00:11:44;8.70;99.90
8820;DHT22;4446;50.876;4.736;2023-04-15T00:14:12;8.70;99.90
8820;DHT22;4446;50.876;4.736;2023-04-15T00:16:39;8.70;99.90
8820;DHT22;4446;50.876;4.736;2023-04-15T00:19:07;8.70;99.90
8820;DHT22;4446;50.876;4.736;2023-04-15T00:21:34;8.60;99.90
8820;DHT22;4446;50.876;4.736;2023-04-15T00:24:01;8.60;99.90
8820;DHT22;4446;50.876;4.736;2023-04-15T00:26:28;8.60;99.90
8820;DHT22;4446;50.876;4.736;2023-04-15T00:28:55;8.60;99.90
8820;DHT22;4446;50.876;4.736;2023-04-15T00:31:22;8.60;99.90
8820;DHT22;4446;50.876;4.736;2023-04-15T00:33:49;8.60;99.90
8820;DHT22;4446;50.876;4.736;2023-04-15T00:36:17;8.60;99.90
8820;DHT22;4446;50.876;4.736;2023-04-15T00:38:44;8.60;99.90
8820;DHT22;4446;50.876;4.736;2023-04-15T00:41:11;8.60;99.90
8820;DHT22;4446;50.876;4.736;2023-04-15T00:43:38;8.60;99.90
8820;DHT22;4446;50.876;4.736;2023-04-15T00:46:06;8.60;99.90
8820;DHT22;4446;50.876;4.736;2023-04-15T00:48:34;8.60;99.90
8820;DHT22;4446;50.876;4.736;2023-04-15T00:51:01;8.50;99.90
8820;DHT22;4446;50.876;4.736;2023-04-15T00:53:29;8.50;99.90
8820;DHT22;4446;50.876;4.736;2023-04-15T00:55:56;8.50;99.90
8820;DHT22;4446;50.876;4.736;2023-04-15T00:58:23;8.50;99.90
8820;DHT22;4446;50.876;4.736;2023-04-15T01:00:50;8.50;99.90
8820;DHT22;4446;50.876;4.736;2023-04-15T01:03:19;8.50;99.90
8820;DHT22;4446;50.876;4.736;2023-04-15T01:05:46;8.50;99.90
8820;DHT22;4446;50.876;4.736;2023-04-15T01:08:13;8.50;99.90
8820;DHT22;4446;50.876;4.736;2023-04-15T01:10:41;8.50;99.90
8820;DHT22;4446;50.876;4.736;2023-04-15T01:13:08;8.50;99.90
8820;DHT22;4446;50.876;4.736;2023-04-15T01:15:35;8.50;99.90
8820;DHT22;4446;50.876;4.736;2023-04-15T01:18:03;8.40;99.90
8820;DHT22;4446;50.876;4.736;2023-04-15T01:20:30;8.40;99.90
8820;DHT22;4446;50.876;4.736;2023-04-15T01:22:57;8.40;99.90
8820;DHT22;4446;50.876;4.736;2023-04-15T01:25:30;8.40;99.90
8820;DHT22;4446;50.876;4.736;2023-04-15T01:27:58;8.40;99.90
8820;DHT22;4446;50.876;4.736;2023-04-15T01:30:25;8.40;99.90
8820;DHT22;4446;50.876;4.736;2023-04-15T01:32:52;8.40;99.90
8820;DHT22;4446;50.876;4.736;2023-04-15T01:35:19;8.40;99.90
8820;DHT22;4446;50.876;4.736;2023-04-15T01:37:47;8.40;99.90
8820;DHT22;4446;50.876;4.736;2023-04-15T01:40:15;8.40;99.90
8820;DHT22;4446;50.876;4.736;2023-04-15T01:42:43;8.40;99.90
8820;DHT22;4446;50.876;4.736;2023-04-15T01:45:10;8.40;99.90
8820;DHT22;4446;50.876;4.736;2023-04-15T01:47:37;8.30;99.90
8820;DHT22;4446;50.876;4.736;2023-04-15T01:50:05;8.30;99.90
8820;DHT22;4446;50.876;4.736;2023-04-15T01:52:33;8.30;99.90
8820;DHT22;4446;50.876;4.736;2023-04-15T01:54:59;8.30;99.90
8820;DHT22;4446;50.876;4.736;2023-04-15T01:57:26;8.30;99.90
8820;DHT22;4446;50.876;4.736;2023-04-15T01:59:55;8.20;99.90
8820;DHT22;4446;50.876;4.736;2023-04-15T02:02:21;8.20;99.90
8820;DHT22;4446;50.876;4.736;2023-04-15T02:04:48;8.10;99.90
8820;DHT22;4446;50.876;4.736;2023-04-15T02:07:15;8.10;99.90
8820;DHT22;4446;50.876;4.736;2023-04-15T02:09:43;8.00;99.90
8820;DHT22;4446;50.876;4.736;2023-04-15T02:12:10;8.00;99.90
8820;DHT22;4446;50.876;4.736;2023-04-15T02:14:38;8.00;99.90
8820;DHT22;4446;50.876;4.736;2023-04-15T02:17:06;8.00;99.90
8820;DHT22;4446;50.876;4.736;2023-04-15T02:19:33;8.00;99.90
8820;DHT22;4446;50.876;4.736;2023-04-15T02:22:00;8.00;99.90
8820;DHT22;4446;50.876;4.736;2023-04-15T02:24:28;7.90;99.90
8820;DHT22;4446;50.876;4.736;2023-04-15T02:26:56;7.90;99.90
8820;DHT22;4446;50.876;4.736;2023-04-15T02:29:23;7.90;99.90
8820;DHT22;4446;50.876;4.736;2023-04-15T02:31:50;7.90;99.90
8820;DHT22;4446;50.876;4.736;2023-04-15T02:34:18;7.90;99.90
8820;DHT22;4446;50.876;4.736;2023-04-15T02:36:45;7.90;99.90
8820;DHT22;4446;50.876;4.736;2023-04-15T02:39:13;7.90;99.90
8820;DHT22;4446;50.876;4.736;2023-04-15T02:41:41;7.90;99.90
8820;DHT22;4446;50.876;4.736;2023-04-15T02:44:12;7.90;99.90
8820;DHT22;4446;50.876;4.736;2023-04-15T02:46:39;7.90;99.90
8820;DHT22;4446;50.876;4.736;2023-04-15T02:49:06;7.90;99.90
8820;DHT22;4446;50.876;4.736;2023-04-15T02:51:34;8.00;99.90
8820;DHT22;4446;50.876;4.736;2023-04-15T02:54:01;8.00;99.90
8820;DHT22;4446;50.876;4.736;2023-04-15T02:56:28;8.00;99.90
8820;DHT22;4446;50.876;4.736;2023-04-15T02:58:56;8.00;99.90
8820;DHT22;4446;50.876;4.736;2023-04-15T03:01:23;8.00;99.90
8820;DHT22;4446;50.876;4.736;2023-04-15T03:03:50;8.00;99.90
8820;DHT22;4446;50.876;4.736;2023-04-15T03:06:17;8.00;99.90
8820;DHT22;4446;50.876;4.736;2023-04-15T03:08:45;7.90;99.90
8820;DHT22;4446;50.876;4.736;2023-04-15T03:11:13;7.90;99.90
8820;DHT22;4446;50.876;4.736;2023-04-15T03:13:40;7.80;99.90
8820;DHT22;4446;50.876;4.736;2023-04-15T03:16:08;7.70;99.90
8820;DHT22;4446;50.876;4.736;2023-04-15T03:18:35;7.70;99.90
8820;DHT22;4446;50.876;4.736;2023-04-15T03:21:02;7.60;99.90
8820;DHT22;4446;50.876;4.736;2023-04-15T03:23:32;7.60;99.90
8820;DHT22;4446;50.876;4.736;2023-04-15T03:26:02;7.50;99.90
8820;DHT22;4446;50.876;4.736;2023-04-15T03:28:30;7.50;99.90
8820;DHT22;4446;50.876;4.736;2023-04-15T03:30:57;7.50;99.90
8820;DHT22;4446;50.876;4.736;2023-04-15T03:33:24;7.50;99.90
8820;DHT22;4446;50.876;4.736;2023-04-15T03:35:51;7.50;99.90
8820;DHT22;4446;50.876;4.736;2023-04-15T03:38:18;7.40;99.90
8820;DHT22;4446;50.876;4.736;2023-04-15T03:40:46;7.40;99.90
8820;DHT22;4446;50.876;4.736;2023-04-15T03:43:14;7.40;99.90
8820;DHT22;4446;50.876;4.736;2023-04-15T03:45:41;7.40;99.90
8820;DHT22;4446;50.876;4.736;2023-04-15T03:48:08;7.40;99.90
8820;DHT22;4446;50.876;4.736;2023-04-15T03:50:35;7.30;99.90
8820;DHT22;4446;50.876;4.736;2023-04-15T03:53:02;7.30;99.90
8820;DHT22;4446;50.876;4.736;2023-04-15T03:55:28;7.30;99.90
8820;DHT22;4446;50.876;4.736;2023-04-15T03:57:56;7.30;99.90
8820;DHT22;4446;50.876;4.736;2023-04-15T04:00:24;7.20;99.90
8820;DHT22;4446;50.876;4.736;2023-04-15T04:02:51;7.20;99.90
8820;DHT22;4446;50.876;4.736;2023-04-15T04:05:18;7.30;99.90
8820;DHT22;4446;50.876;4.736;2023-04-15T04:07:45;7.30;99.90
8820;DHT22;4446;50.876;4.736;2023-04-15T04:10:12;7.30;99.90
8820;DHT22;4446;50.876;4.736;2023-04-15T04:12:39;7.30;99.90
8820;DHT22;4446;50.876;4.736;2023-04-15T04:15:06;7.20;99.90
8820;DHT22;4446;50.876;4.736;2023-04-15T04:17:35;7.30;99.90
8820;DHT22;4446;50.876;4.736;2023-04-15T04:20:02;7.20;99.90
8820;DHT22;4446;50.876;4.736;2023-04-15T04:22:30;7.20;99.90
8820;DHT22;4446;50.876;4.736;2023-04-15T04:24:57;7.20;99.90
8820;DHT22;4446;50.876;4.736;2023-04-15T04:27:25;7.30;99.90
8820;DHT22;4446;50.876;4.736;2023-04-15T04:29:51;7.30;99.90
8820;DHT22;4446;50.876;4.736;2023-04-15T04:32:18;7.30;99.90
8820;DHT22;4446;50.876;4.736;2023-04-15T04:34:46;7.30;99.90
8820;DHT22;4446;50.876;4.736;2023-04-15T04:37:13;7.30;99.90
8820;DHT22;4446;50.876;4.736;2023-04-15T04:39:40;7.30;99.90
8820;DHT22;4446;50.876;4.736;2023-04-15T04:42:07;7.20;99.90
8820;DHT22;4446;50.876;4.736;2023-04-15T04:44:34;7.30;99.90
8820;DHT22;4446;50.876;4.736;2023-04-15T04:47:01;7.30;99.90
8820;DHT22;4446;50.876;4.736;2023-04-15T04:49:28;7.30;99.90
8820;DHT22;4446;50.876;4.736;2023-04-15T04:51:57;7.30;99.90
8820;DHT22;4446;50.876;4.736;2023-04-15T04:54:24;7.30;99.90
8820;DHT22;4446;50.876;4.736;2023-04-15T04:56:52;7.30;99.90
8820;DHT22;4446;50.876;4.736;2023-04-15T04:59:19;7.30;99.90
8820;DHT22;4446;50.876;4.736;2023-04-15T05:01:46;7.30;99.90
8820;DHT22;4446;50.876;4.736;2023-04-15T05:04:12;7.30;99.90
8820;DHT22;4446;50.876;4.736;2023-04-15T05:06:39;7.30;99.90
8820;DHT22;4446;50.876;4.736;2023-04-15T05:09:08;7.40;99.90
8820;DHT22;4446;50.876;4.736;2023-04-15T05:11:35;7.40;99.90
8820;DHT22;4446;50.876;4.736;2023-04-15T05:14:01;7.50;99.90
8820;DHT22;4446;50.876;4.736;2023-04-15T05:16:28;7.50;99.90
8820;DHT22;4446;50.876;4.736;2023-04-15T05:18:55;7.60;99.90
8820;DHT22;4446;50.876;4.736;2023-04-15T05:21:22;7.70;99.90
8820;DHT22;4446;50.876;4.736;2023-04-15T05:23:49;7.70;99.90
8820;DHT22;4446;50.876;4.736;2023-04-15T05:26:17;7.70;99.90
8820;DHT22;4446;50.876;4.736;2023-04-15T05:28:44;7.80;99.90
8820;DHT22;4446;50.876;4.736;2023-04-15T05:31:12;7.80;99.90
8820;DHT22;4446;50.876;4.736;2023-04-15T05:33:39;7.90;99.90
8820;DHT22;4446;50.876;4.736;2023-04-15T05:36:06;8.00;99.90
8820;DHT22;4446;50.876;4.736;2023-04-15T05:38:33;8.00;99.90
8820;DHT22;4446;50.876;4.736;2023-04-15T05:41:00;8.10;99.90
8820;DHT22;4446;50.876;4.736;2023-04-15T05:43:29;8.10;99.90
8820;DHT22;4446;50.876;4.736;2023-04-15T05:45:56;8.20;99.90
8820;DHT22;4446;50.876;4.736;2023-04-15T05:48:23;8.20;99.90
8820;DHT22;4446;50.876;4.736;2023-04-15T05:50:50;8.20;99.90
8820;DHT22;4446;50.876;4.736;2023-04-15T05:53:19;8.30;99.90
8820;DHT22;4446;50.876;4.736;2023-04-15T05:55:46;8.30;99.90
8820;DHT22;4446;50.876;4.736;2023-04-15T05:58:13;8.30;99.90
8820;DHT22;4446;50.876;4.736;2023-04-15T06:00:42;8.30;99.90
8820;DHT22;4446;50.876;4.736;2023-04-15T06:03:10;8.30;99.90
8820;DHT22;4446;50.876;4.736;2023-04-15T06:05:37;8.50;99.90
8820;DHT22;4446;50.876;4.736;2023-04-15T06:08:05;8.40;99.90
8820;DHT22;4446;50.876;4.736;2023-04-15T06:10:34;8.50;99.90
8820;DHT22;4446;50.876;4.736;2023-04-15T06:13:01;8.50;99.90
8820;DHT22;4446;50.876;4.736;2023-04-15T06:15:28;8.70;99.90
8820;DHT22;4446;50.876;4.736;2023-04-15T06:17:56;8.70;99.90
8820;DHT22;4446;50.876;4.736;2023-04-15T06:20:23;8.70;99.90
8820;DHT22;4446;50.876;4.736;2023-04-15T06:22:51;8.80;99.90
8820;DHT22;4446;50.876;4.736;2023-04-15T06:25:17;8.80;99.90
8820;DHT22;4446;50.876;4.736;2023-04-15T06:27:45;9.00;99.90
8820;DHT22;4446;50.876;4.736;2023-04-15T06:30:12;9.10;99.90
8820;DHT22;4446;50.876;4.736;2023-04-15T06:32:39;9.10;99.90
8820;DHT22;4446;50.876;4.736;2023-04-15T06:35:08;9.30;99.90
8820;DHT22;4446;50.876;4.736;2023-04-15T06:37:36;9.40;99.90
8820;DHT22;4446;50.876;4.736;2023-04-15T06:40:03;9.40;99.90
8820;DHT22;4446;50.876;4.736;2023-04-15T06:42:30;9.50;99.90
8820;DHT22;4446;50.876;4.736;2023-04-15T06:44:57;9.60;99.90
8820;DHT22;4446;50.876;4.736;2023-04-15T06:47:24;9.70;99.90
8820;DHT22;4446;50.876;4.736;2023-04-15T06:49:51;9.80;99.90
8820;DHT22;4446;50.876;4.736;2023-04-15T06:52:19;9.90;99.90
8820;DHT22;4446;50.876;4.736;2023-04-15T06:54:46;10.00;99.90
8820;DHT22;4446;50.876;4.736;2023-04-15T06:57:13;10.10;99.90
8820;DHT22;4446;50.876;4.736;2023-04-15T06:59:40;10.20;99.90
8820;DHT22;4446;50.876;4.736;2023-04-15T07:02:10;10.20;99.90
8820;DHT22;4446;50.876;4.736;2023-04-15T07:04:38;10.40;99.90
8820;DHT22;4446;50.876;4.736;2023-04-15T07:07:05;10.60;99.90
8820;DHT22;4446;50.876;4.736;2023-04-15T07:09:33;10.50;99.90
8820;DHT22;4446;50.876;4.736;2023-04-15T07:12:00;10.60;99.90
8820;DHT22;4446;50.876;4.736;2023-04-15T07:14:27;10.50;99.90
8820;DHT22;4446;50.876;4.736;2023-04-15T07:16:54;10.50;99.90
8820;DHT22;4446;50.876;4.736;2023-04-15T07:19:22;10.50;99.90
8820;DHT22;4446;50.876;4.736;2023-04-15T07:21:49;10.60;99.90
8820;DHT22;4446;50.876;4.736;2023-04-15T07:24:15;10.60;99.90
8820;DHT22;4446;50.876;4.736;2023-04-15T07:26:46;10.60;99.90
8820;DHT22;4446;50.876;4.736;2023-04-15T07:29:13;10.60;99.90
8820;DHT22;4446;50.876;4.736;2023-04-15T07:31:40;10.60;99.90
8820;DHT22;4446;50.876;4.736;2023-04-15T07:34:07;10.70;99.90
8820;DHT22;4446;50.876;4.736;2023-04-15T07:36:35;10.80;99.90
8820;DHT22;4446;50.876;4.736;2023-04-15T07:39:02;10.90;99.90
8820;DHT22;4446;50.876;4.736;2023-04-15T07:41:29;10.90;99.90
8820;DHT22;4446;50.876;4.736;2023-04-15T07:43:57;11.00;99.90
8820;DHT22;4446;50.876;4.736;2023-04-15T07:46:24;11.10;99.90
8820;DHT22;4446;50.876;4.736;2023-04-15T07:48:52;11.20;99.90
8820;DHT22;4446;50.876;4.736;2023-04-15T07:51:19;11.30;99.90
8820;DHT22;4446;50.876;4.736;2023-04-15T07:53:46;11.40;99.90
8820;DHT22;4446;50.876;4.736;2023-04-15T07:56:14;11.50;99.90
8820;DHT22;4446;50.876;4.736;2023-04-15T07:58:41;11.60;99.90
8820;DHT22;4446;50.876;4.736;2023-04-15T08:01:09;11.60;99.90
8820;DHT22;4446;50.876;4.736;2023-04-15T08:03:37;11.70;99.90
8820;DHT22;4446;50.876;4.736;2023-04-15T08:06:04;11.80;99.90
8820;DHT22;4446;50.876;4.736;2023-04-15T08:08:31;11.80;99.90
8820;DHT22;4446;50.876;4.736;2023-04-15T08:10:58;11.90;99.90
8820;DHT22;4446;50.876;4.736;2023-04-15T08:13:25;12.00;99.90
8820;DHT22;4446;50.876;4.736;2023-04-15T08:16:14;12.10;99.90
8820;DHT22;4446;50.876;4.736;2023-04-15T08:18:42;12.20;99.90
8820;DHT22;4446;50.876;4.736;2023-04-15T08:21:09;12.20;99.90
8820;DHT22;4446;50.876;4.736;2023-04-15T08:23:36;12.30;99.90
8820;DHT22;4446;50.876;4.736;2023-04-15T08:26:03;12.30;99.90
8820;DHT22;4446;50.876;4.736;2023-04-15T08:28:30;12.40;99.90
8820;DHT22;4446;50.876;4.736;2023-04-15T08:30:57;12.20;99.90
8820;DHT22;4446;50.876;4.736;2023-04-15T08:33:26;12.30;99.90
8820;DHT22;4446;50.876;4.736;2023-04-15T08:35:55;12.30;99.90
8820;DHT22;4446;50.876;4.736;2023-04-15T08:38:22;12.40;99.90
8820;DHT22;4446;50.876;4.736;2023-04-15T08:40:49;12.40;99.90
8820;DHT22;4446;50.876;4.736;2023-04-15T08:43:20;12.40;99.90
8820;DHT22;4446;50.876;4.736;2023-04-15T08:45:49;12.50;99.90
8820;DHT22;4446;50.876;4.736;2023-04-15T08:48:18;12.50;99.90
8820;DHT22;4446;50.876;4.736;2023-04-15T08:50:47;12.70;99.90
8820;DHT22;4446;50.876;4.736;2023-04-15T08:53:14;12.80;99.90
8820;DHT22;4446;50.876;4.736;2023-04-15T08:55:43;12.90;99.90
8820;DHT22;4446;50.876;4.736;2023-04-15T08:58:11;12.90;99.90
8820;DHT22;4446;50.876;4.736;2023-04-15T09:00:38;13.10;99.90
8820;DHT22;4446;50.876;4.736;2023-04-15T09:03:06;13.10;99.90
8820;DHT22;4446;50.876;4.736;2023-04-15T09:05:34;13.10;99.90
8820;DHT22;4446;50.876;4.736;2023-04-15T09:08:03;13.20;99.90
8820;DHT22;4446;50.876;4.736;2023-04-15T09:10:32;13.30;99.90
8820;DHT22;4446;50.876;4.736;2023-04-15T09:13:01;13.40;99.90
8820;DHT22;4446;50.876;4.736;2023-04-15T09:15:29;13.50;99.90
8820;DHT22;4446;50.876;4.736;2023-04-15T09:17:58;13.50;99.90
8820;DHT22;4446;50.876;4.736;2023-04-15T09:20:25;13.70;99.90
8820;DHT22;4446;50.876;4.736;2023-04-15T09:22:52;13.70;99.90
8820;DHT22;4446;50.876;4.736;2023-04-15T09:25:29;13.70;99.90
8820;DHT22;4446;50.876;4.736;2023-04-15T09:27:57;13.80;99.90
8820;DHT22;4446;50.876;4.736;2023-04-15T09:30:26;13.80;99.90
8820;DHT22;4446;50.876;4.736;2023-04-15T09:32:55;13.90;99.90
8820;DHT22;4446;50.876;4.736;2023-04-15T09:35:23;13.80;99.90
8820;DHT22;4446;50.876;4.736;2023-04-15T09:37:51;13.80;99.90
8820;DHT22;4446;50.876;4.736;2023-04-15T09:40:32;13.80;99.90
8820;DHT22;4446;50.876;4.736;2023-04-15T09:42:59;13.90;99.90
8820;DHT22;4446;50.876;4.736;2023-04-15T09:45:26;13.90;99.90
8820;DHT22;4446;50.876;4.736;2023-04-15T09:47:53;14.00;99.90
8820;DHT22;4446;50.876;4.736;2023-04-15T09:50:20;14.00;99.90
8820;DHT22;4446;50.876;4.736;2023-04-15T09:52:47;14.00;99.90
8820;DHT22;4446;50.876;4.736;2023-04-15T09:55:16;14.00;99.90
8820;DHT22;4446;50.876;4.736;2023-04-15T09:57:45;14.00;99.90
8820;DHT22;4446;50.876;4.736;2023-04-15T10:00:13;14.00;99.90
8820;DHT22;4446;50.876;4.736;2023-04-15T10:02:41;14.00;99.90
8820;DHT22;4446;50.876;4.736;2023-04-15T10:05:09;14.10;99.90
8820;DHT22;4446;50.876;4.736;2023-04-15T10:07:37;14.20;99.90
8820;DHT22;4446;50.876;4.736;2023-04-15T10:10:06;14.10;99.90
8820;DHT22;4446;50.876;4.736;2023-04-15T10:12:36;14.30;99.90
8820;DHT22;4446;50.876;4.736;2023-04-15T10:15:05;14.40;99.90
8820;DHT22;4446;50.876;4.736;2023-04-15T10:17:35;14.50;99.90
8820;DHT22;4446;50.876;4.736;2023-04-15T10:20:03;14.40;99.90
8820;DHT22;4446;50.876;4.736;2023-04-15T10:22:32;14.50;99.90
8820;DHT22;4446;50.876;4.736;2023-04-15T10:24:59;14.40;99.90
8820;DHT22;4446;50.876;4.736;2023-04-15T10:27:26;14.40;99.90
8820;DHT22;4446;50.876;4.736;2023-04-15T10:29:55;14.50;99.90
8820;DHT22;4446;50.876;4.736;2023-04-15T10:32:24;14.40;99.90
8820;DHT22;4446;50.876;4.736;2023-04-15T10:34:52;14.40;99.90
8820;DHT22;4446;50.876;4.736;2023-04-15T10:37:20;14.40;99.90
8820;DHT22;4446;50.876;4.736;2023-04-15T10:39:48;14.50;99.90
8820;DHT22;4446;50.876;4.736;2023-04-15T10:42:17;14.60;99.90
8820;DHT22;4446;50.876;4.736;2023-04-15T10:44:47;14.80;99.90
8820;DHT22;4446;50.876;4.736;2023-04-15T10:47:17;14.70;99.90
8820;DHT22;4446;50.876;4.736;2023-04-15T10:49:47;14.80;99.90
8820;DHT22;4446;50.876;4.736;2023-04-15T10:52:16;14.80;99.90
8820;DHT22;4446;50.876;4.736;2023-04-15T10:54:44;14.80;99.90
8820;DHT22;4446;50.876;4.736;2023-04-15T10:57:16;14.80;99.90
8820;DHT22;4446;50.876;4.736;2023-04-15T11:00:10;14.80;99.90
8820;DHT22;4446;50.876;4.736;2023-04-15T11:02:42;15.00;99.90
8820;DHT22;4446;50.876;4.736;2023-04-15T11:05:11;15.00;99.90
8820;DHT22;4446;50.876;4.736;2023-04-15T11:07:40;15.20;99.90
8820;DHT22;4446;50.876;4.736;2023-04-15T11:13:24;15.20;99.90
8820;DHT22;4446;50.876;4.736;2023-04-15T11:16:01;15.30;99.90
8820;DHT22;4446;50.876;4.736;2023-04-15T11:18:29;15.30;99.90
8820;DHT22;4446;50.876;4.736;2023-04-15T11:21:00;15.30;99.90
8820;DHT22;4446;50.876;4.736;2023-04-15T11:23:30;15.40;99.90
8820;DHT22;4446;50.876;4.736;2023-04-15T11:25:58;15.40;99.90
8820;DHT22;4446;50.876;4.736;2023-04-15T11:28:26;15.40;99.90
8820;DHT22;4446;50.876;4.736;2023-04-15T11:30:53;15.40;99.90
8820;DHT22;4446;50.876;4.736;2023-04-15T11:33:22;15.40;99.90
8820;DHT22;4446;50.876;4.736;2023-04-15T11:35:49;15.40;99.90
8820;DHT22;4446;50.876;4.736;2023-04-15T11:38:19;15.40;99.90
8820;DHT22;4446;50.876;4.736;2023-04-15T11:40:47;15.30;99.90
8820;DHT22;4446;50.876;4.736;2023-04-15T11:43:17;15.30;99.90
8820;DHT22;4446;50.876;4.736;2023-04-15T11:45:50;15.40;99.90
8820;DHT22;4446;50.876;4.736;2023-04-15T11:48:18;15.50;99.90
8820;DHT22;4446;50.876;4.736;2023-04-15T11:50:45;15.50;99.90
8820;DHT22;4446;50.876;4.736;2023-04-15T11:53:12;15.40;99.90
8820;DHT22;4446;50.876;4.736;2023-04-15T11:55:42;15.40;99.90
8820;DHT22;4446;50.876;4.736;2023-04-15T11:58:12;15.30;99.90
8820;DHT22;4446;50.876;4.736;2023-04-15T12:00:40;15.20;99.90
8820;DHT22;4446;50.876;4.736;2023-04-15T12:03:19;15.40;99.90
8820;DHT22;4446;50.876;4.736;2023-04-15T12:06:05;15.60;99.90
8820;DHT22;4446;50.876;4.736;2023-04-15T12:08:52;15.70;99.90
8820;DHT22;4446;50.876;4.736;2023-04-15T12:11:29;15.70;99.90
8820;DHT22;4446;50.876;4.736;2023-04-15T12:13:58;15.90;99.90
8820;DHT22;4446;50.876;4.736;2023-04-15T12:16:27;16.00;99.90
8820;DHT22;4446;50.876;4.736;2023-04-15T12:18:56;15.90;99.90
8820;DHT22;4446;50.876;4.736;2023-04-15T12:21:24;16.00;99.90
8820;DHT22;4446;50.876;4.736;2023-04-15T12:23:52;16.10;99.90
8820;DHT22;4446;50.876;4.736;2023-04-15T12:26:27;16.20;99.90
8820;DHT22;4446;50.876;4.736;2023-04-15T12:28:54;16.20;99.90
8820;DHT22;4446;50.876;4.736;2023-04-15T12:31:21;16.40;99.90
8820;DHT22;4446;50.876;4.736;2023-04-15T12:33:49;16.40;99.90
8820;DHT22;4446;50.876;4.736;2023-04-15T12:36:16;16.50;99.90
8820;DHT22;4446;50.876;4.736;2023-04-15T12:38:43;16.40;99.90
8820;DHT22;4446;50.876;4.736;2023-04-15T12:41:09;16.40;99.90
8820;DHT22;4446;50.876;4.736;2023-04-15T12:43:38;16.50;98.90
8820;DHT22;4446;50.876;4.736;2023-04-15T12:46:05;16.60;98.90
8820;DHT22;4446;50.876;4.736;2023-04-15T12:48:33;16.50;98.70
8820;DHT22;4446;50.876;4.736;2023-04-15T12:51:00;16.50;99.90
8820;DHT22;4446;50.876;4.736;2023-04-15T12:53:27;16.50;99.90
8820;DHT22;4446;50.876;4.736;2023-04-15T12:55:54;16.60;97.30
8820;DHT22;4446;50.876;4.736;2023-04-15T12:58:21;16.50;96.80
8820;DHT22;4446;50.876;4.736;2023-04-15T13:00:49;16.60;98.40
8820;DHT22;4446;50.876;4.736;2023-04-15T13:03:16;16.60;99.60
8820;DHT22;4446;50.876;4.736;2023-04-15T13:05:43;16.80;99.90
8820;DHT22;4446;50.876;4.736;2023-04-15T13:08:10;16.80;99.70
8820;DHT22;4446;50.876;4.736;2023-04-15T13:10:37;16.90;99.10
8820;DHT22;4446;50.876;4.736;2023-04-15T13:13:05;16.90;98.70
8820;DHT22;4446;50.876;4.736;2023-04-15T13:15:35;17.00;98.20
8820;DHT22;4446;50.876;4.736;2023-04-15T13:18:05;16.80;99.00
8820;DHT22;4446;50.876;4.736;2023-04-15T13:20:32;16.70;99.90
8820;DHT22;4446;50.876;4.736;2023-04-15T13:22:59;16.70;99.90
8820;DHT22;4446;50.876;4.736;2023-04-15T13:25:26;16.80;99.10
8820;DHT22;4446;50.876;4.736;2023-04-15T13:27:53;16.90;99.20
8820;DHT22;4446;50.876;4.736;2023-04-15T13:30:22;17.10;98.10
8820;DHT22;4446;50.876;4.736;2023-04-15T13:32:50;17.30;98.80
8820;DHT22;4446;50.876;4.736;2023-04-15T13:35:19;17.40;99.00
8820;DHT22;4446;50.876;4.736;2023-04-15T13:37:46;17.50;98.80
8820;DHT22;4446;50.876;4.736;2023-04-15T13:40:13;17.60;99.60
8820;DHT22;4446;50.876;4.736;2023-04-15T13:42:41;17.60;97.60
8820;DHT22;4446;50.876;4.736;2023-04-15T13:45:09;17.50;98.80
8820;DHT22;4446;50.876;4.736;2023-04-15T13:47:36;17.30;98.80
8820;DHT22;4446;50.876;4.736;2023-04-15T13:50:03;17.20;99.50
8820;DHT22;4446;50.876;4.736;2023-04-15T13:52:32;17.20;98.70
8820;DHT22;4446;50.876;4.736;2023-04-15T13:54:59;17.10;97.90
8820;DHT22;4446;50.876;4.736;2023-04-15T13:57:26;17.40;99.90
8820;DHT22;4446;50.876;4.736;2023-04-15T13:59:53;17.80;99.90
8820;DHT22;4446;50.876;4.736;2023-04-15T14:02:20;17.90;99.60
8820;DHT22;4446;50.876;4.736;2023-04-15T14:04:48;18.20;99.30
8820;DHT22;4446;50.876;4.736;2023-04-15T14:07:15;18.40;99.60
8820;DHT22;4446;50.876;4.736;2023-04-15T14:09:44;18.00;99.90
8820;DHT22;4446;50.876;4.736;2023-04-15T14:12:10;17.90;99.90
8820;DHT22;4446;50.876;4.736;2023-04-15T14:14:38;17.80;99.90
8820;DHT22;4446;50.876;4.736;2023-04-15T14:17:05;17.80;99.90
8820;DHT22;4446;50.876;4.736;2023-04-15T14:19:34;18.30;99.90
8820;DHT22;4446;50.876;4.736;2023-04-15T14:22:01;19.00;99.60
8820;DHT22;4446;50.876;4.736;2023-04-15T14:24:28;19.30;98.80
8820;DHT22;4446;50.876;4.736;2023-04-15T14:26:57;18.80;99.00
8820;DHT22;4446;50.876;4.736;2023-04-15T14:29:23;18.50;99.90
8820;DHT22;4446;50.876;4.736;2023-04-15T14:31:50;18.40;99.90
8820;DHT22;4446;50.876;4.736;2023-04-15T14:34:17;18.50;99.90
8820;DHT22;4446;50.876;4.736;2023-04-15T14:36:46;19.20;99.90
8820;DHT22;4446;50.876;4.736;2023-04-15T14:39:13;19.60;98.80
8820;DHT22;4446;50.876;4.736;2023-04-15T14:41:40;19.80;99.20
8820;DHT22;4446;50.876;4.736;2023-04-15T14:44:09;20.00;99.60
8820;DHT22;4446;50.876;4.736;2023-04-15T14:46:37;20.30;99.90
8820;DHT22;4446;50.876;4.736;2023-04-15T14:49:05;20.70;99.10
8820;DHT22;4446;50.876;4.736;2023-04-15T14:51:32;20.60;99.10
8820;DHT22;4446;50.876;4.736;2023-04-15T14:53:59;20.30;99.90
8820;DHT22;4446;50.876;4.736;2023-04-15T14:56:26;20.20;99.20
8820;DHT22;4446;50.876;4.736;2023-04-15T14:58:52;20.00;99.60
8820;DHT22;4446;50.876;4.736;2023-04-15T15:01:21;20.20;99.50
8820;DHT22;4446;50.876;4.736;2023-04-15T15:03:48;19.60;98.40
8820;DHT22;4446;50.876;4.736;2023-04-15T15:06:15;19.40;98.80
8820;DHT22;4446;50.876;4.736;2023-04-15T15:08:42;19.40;97.80
8820;DHT22;4446;50.876;4.736;2023-04-15T15:11:09;19.60;95.90
8820;DHT22;4446;50.876;4.736;2023-04-15T15:13:36;19.50;96.50
8820;DHT22;4446;50.876;4.736;2023-04-15T15:16:03;19.50;96.60
8820;DHT22;4446;50.876;4.736;2023-04-15T15:18:31;19.40;96.20
8820;DHT22;4446;50.876;4.736;2023-04-15T15:20:58;19.30;96.30
8820;DHT22;4446;50.876;4.736;2023-04-15T15:23:25;19.20;95.90
8820;DHT22;4446;50.876;4.736;2023-04-15T15:25:52;19.30;95.90
8820;DHT22;4446;50.876;4.736;2023-04-15T15:28:21;19.30;97.20
8820;DHT22;4446;50.876;4.736;2023-04-15T15:30:48;19.30;97.80
8820;DHT22;4446;50.876;4.736;2023-04-15T15:33:15;19.00;98.30
8820;DHT22;4446;50.876;4.736;2023-04-15T15:35:43;19.10;98.50
8820;DHT22;4446;50.876;4.736;2023-04-15T15:38:11;19.60;98.00
8820;DHT22;4446;50.876;4.736;2023-04-15T15:40:38;19.70;98.00
8820;DHT22;4446;50.876;4.736;2023-04-15T15:43:04;19.70;97.80
8820;DHT22;4446;50.876;4.736;2023-04-15T15:45:31;19.80;96.90
8820;DHT22;4446;50.876;4.736;2023-04-15T15:47:59;19.90;97.20
8820;DHT22;4446;50.876;4.736;2023-04-15T15:50:26;19.70;97.40
8820;DHT22;4446;50.876;4.736;2023-04-15T15:52:55;19.50;98.20
8820;DHT22;4446;50.876;4.736;2023-04-15T15:55:23;19.50;98.50
8820;DHT22;4446;50.876;4.736;2023-04-15T15:57:51;19.30;97.20
8820;DHT22;4446;50.876;4.736;2023-04-15T16:00:18;19.10;97.80
8820;DHT22;4446;50.876;4.736;2023-04-15T16:02:45;19.00;98.40
8820;DHT22;4446;50.876;4.736;2023-04-15T16:05:12;19.10;98.30
8820;DHT22;4446;50.876;4.736;2023-04-15T16:07:40;19.40;98.20
8820;DHT22;4446;50.876;4.736;2023-04-15T16:10:09;19.60;97.40
8820;DHT22;4446;50.876;4.736;2023-04-15T16:12:37;19.90;97.30
8820;DHT22;4446;50.876;4.736;2023-04-15T16:15:05;19.70;97.80
8820;DHT22;4446;50.876;4.736;2023-04-15T16:17:32;19.70;98.40